createdAt,value
2023-01-10T00:02:03.466Z,1.07
2023-01-10T00:04:32.075Z,1.83
2023-01-10T00:07:01.431Z,1.27
2023-01-10T00:09:31.367Z,2.87
2023-01-10T00:12:17.089Z,2.07
2023-01-10T00:14:45.347Z,2.33
2023-01-10T00:17:13.871Z,2.20
2023-01-10T00:19:42.186Z,0.97
2023-01-10T00:22:17.178Z,2.17
2023-01-10T00:24:46.926Z,1.23
2023-01-10T00:27:17.167Z,1.20
2023-01-10T00:29:46.516Z,0.67
2023-01-10T00:32:14.702Z,0.63
2023-01-10T00:34:43.142Z,0.70
2023-01-10T00:46:22.681Z,1.83
2023-01-10T02:06:07.562Z,0.50
2023-01-10T02:08:36.668Z,1.57
2023-01-10T02:11:10.909Z,0.60
2023-01-10T02:13:44.342Z,1.20
2023-01-10T02:16:13.062Z,2.20
2023-01-10T02:18:44.188Z,0.67
2023-01-10T02:22:15.791Z,0.50
2023-01-10T02:25:31.327Z,1.87
2023-01-10T02:29:04.098Z,0.50
2023-01-10T02:32:10.877Z,0.87
2023-01-10T02:34:52.713Z,1.30
2023-01-10T02:37:31.830Z,1.57
2023-01-10T02:40:09.144Z,1.60
2023-01-10T02:42:47.730Z,3.90
2023-01-10T02:45:25.971Z,2.17
2023-01-10T02:47:57.573Z,1.60
2023-01-10T02:50:44.972Z,3.40
2023-01-10T02:53:20.274Z,2.10
2023-01-10T02:56:14.418Z,1.83
2023-01-10T02:59:07.982Z,3.73
2023-01-10T03:01:49.487Z,4.40
2023-01-10T03:04:34.215Z,0.70
2023-01-10T03:07:19.224Z,3.33
2023-01-10T03:09:57.181Z,2.03
2023-01-10T03:12:38.308Z,2.10
2023-01-10T03:15:12.065Z,1.70
2023-01-10T03:17:42.831Z,2.87
2023-01-10T03:20:13.853Z,4.03
2023-01-10T03:22:45.014Z,5.67
2023-01-10T03:25:17.555Z,6.63
2023-01-10T03:27:58.812Z,5.30
2023-01-10T03:30:37.087Z,4.20
2023-01-10T03:33:06.693Z,5.00
2023-01-10T03:35:51.834Z,5.40
2023-01-10T03:38:28.742Z,3.13
2023-01-10T03:41:06.562Z,3.17
2023-01-10T03:44:02.349Z,4.10
2023-01-10T03:46:40.523Z,4.33
2023-01-10T03:49:11.766Z,4.93
2023-01-10T03:51:42.675Z,5.67
2023-01-10T03:54:11.281Z,6.13
2023-01-10T03:56:47.335Z,4.37
2023-01-10T03:59:15.615Z,8.23
2023-01-10T04:01:44.062Z,4.03
2023-01-10T04:04:12.654Z,8.73
2023-01-10T04:06:43.189Z,8.60
2023-01-10T04:09:12.290Z,7.97
2023-01-10T04:11:40.788Z,9.07
2023-01-10T04:14:08.871Z,7.10
2023-01-10T04:16:37.618Z,8.60
2023-01-10T04:19:05.874Z,8.50
2023-01-10T04:21:34.417Z,6.63
2023-01-10T04:24:04.070Z,9.40
2023-01-10T04:26:32.764Z,7.37
2023-01-10T04:29:00.878Z,8.03
2023-01-10T04:31:29.910Z,8.73
2023-01-10T04:33:58.131Z,7.00
2023-01-10T04:36:27.094Z,14.57
2023-01-10T04:38:55.435Z,8.47
2023-01-10T04:41:25.518Z,12.33
2023-01-10T04:43:53.711Z,5.60
2023-01-10T04:46:22.229Z,8.80
2023-01-10T04:48:50.761Z,8.13
2023-01-10T04:51:19.620Z,9.47
2023-01-10T04:53:48.119Z,7.47
2023-01-10T04:56:20.208Z,8.63
2023-01-10T04:58:53.060Z,10.33
2023-01-10T05:01:25.964Z,10.83
2023-01-10T05:03:56.756Z,7.73
2023-01-10T05:06:26.317Z,7.97
2023-01-10T05:08:54.811Z,7.53
2023-01-10T05:11:23.545Z,12.50
2023-01-10T05:13:53.247Z,7.90
2023-01-10T05:16:21.870Z,7.97
2023-01-10T05:18:50.786Z,7.00
2023-01-10T05:21:20.022Z,7.90
2023-01-10T05:23:48.447Z,7.87
2023-01-10T05:26:20.032Z,6.87
2023-01-10T05:28:48.873Z,12.00
2023-01-10T05:31:20.829Z,6.33
2023-01-10T05:33:51.604Z,7.50
2023-01-10T05:36:20.755Z,7.30
2023-01-10T05:38:49.342Z,7.60
2023-01-10T05:41:17.509Z,7.80
2023-01-10T05:43:46.516Z,6.70
2023-01-10T05:46:14.676Z,11.17
2023-01-10T05:48:44.747Z,15.33
2023-01-10T05:51:12.880Z,8.80
2023-01-10T05:53:41.735Z,9.47
2023-01-10T05:56:11.499Z,9.27
2023-01-10T05:58:39.939Z,7.07
2023-01-10T06:01:08.842Z,10.87
2023-01-10T06:03:37.033Z,9.77
2023-01-10T06:06:07.542Z,7.23
2023-01-10T06:08:37.021Z,7.07
2023-01-10T06:11:05.336Z,12.03
2023-01-10T06:13:34.260Z,15.77
2023-01-10T06:16:02.992Z,6.47
2023-01-10T06:18:31.168Z,8.13
2023-01-10T06:20:59.434Z,9.73
2023-01-10T06:23:30.639Z,8.70
2023-01-10T06:25:58.778Z,5.93
2023-01-10T06:28:26.892Z,9.77
2023-01-10T06:30:55.078Z,6.27
2023-01-10T06:33:24.003Z,8.43
2023-01-10T06:35:52.109Z,7.47
2023-01-10T06:38:20.197Z,10.07
2023-01-10T06:40:49.985Z,9.67
2023-01-10T06:43:18.270Z,12.10
2023-01-10T06:45:46.955Z,11.40
2023-01-10T06:48:15.517Z,7.23
2023-01-10T06:50:44.426Z,13.90
2023-01-10T06:53:12.986Z,8.70
2023-01-10T06:55:41.316Z,8.77
2023-01-10T06:58:11.314Z,6.67
2023-01-10T07:00:40.409Z,9.17
2023-01-10T07:03:10.700Z,9.07
2023-01-10T07:05:39.184Z,6.33
2023-01-10T07:08:07.726Z,10.80
2023-01-10T07:10:35.883Z,6.43
2023-01-10T07:13:04.729Z,8.20
2023-01-10T07:15:34.772Z,8.33
2023-01-10T07:18:03.878Z,12.10
2023-01-10T07:20:32.088Z,8.67
2023-01-10T07:23:02.161Z,9.77
2023-01-10T07:25:31.490Z,7.13
2023-01-10T07:27:59.891Z,10.57
2023-01-10T07:30:28.056Z,8.07
2023-01-10T07:33:01.396Z,7.70
2023-01-10T07:35:30.156Z,8.00
2023-01-10T07:37:59.791Z,4.93
2023-01-10T07:40:28.279Z,6.57
2023-01-10T07:42:58.440Z,7.40
2023-01-10T07:45:28.552Z,18.07
2023-01-10T07:48:00.048Z,18.30
2023-01-10T07:50:31.753Z,11.57
2023-01-10T07:53:01.991Z,8.37
2023-01-10T07:55:30.799Z,9.30
2023-01-10T07:57:59.000Z,11.23
2023-01-10T08:00:27.379Z,9.17
2023-01-10T08:02:58.010Z,9.20
2023-01-10T08:05:27.374Z,9.03
2023-01-10T08:08:00.498Z,10.30
2023-01-10T08:10:29.207Z,5.90
2023-01-10T08:13:01.534Z,10.10
2023-01-10T08:15:32.605Z,8.00
2023-01-10T08:18:04.908Z,10.13
2023-01-10T08:20:33.834Z,6.53
2023-01-10T08:23:02.456Z,8.33
2023-01-10T08:25:30.599Z,7.97
2023-01-10T08:27:59.165Z,9.17
2023-01-10T08:30:28.006Z,6.73
2023-01-10T08:32:56.532Z,6.10
2023-01-10T08:35:26.058Z,7.37
2023-01-10T08:37:54.528Z,8.13
2023-01-10T08:40:23.106Z,5.47
2023-01-10T08:42:59.271Z,9.97
2023-01-10T08:45:28.230Z,6.97
2023-01-10T08:47:56.810Z,6.77
2023-01-10T08:50:27.617Z,6.60
2023-01-10T08:52:58.152Z,8.40
2023-01-10T08:55:27.815Z,7.30
2023-01-10T08:57:56.377Z,4.87
2023-01-10T09:00:25.011Z,6.63
2023-01-10T09:02:53.853Z,6.03
2023-01-10T09:05:27.322Z,5.37
2023-01-10T09:08:02.674Z,5.67
2023-01-10T09:10:31.705Z,3.77
2023-01-10T09:13:01.852Z,4.20
2023-01-10T09:15:33.796Z,5.87
2023-01-10T09:18:05.957Z,7.60
2023-01-10T09:20:36.907Z,4.33
2023-01-10T09:23:12.185Z,6.87
2023-01-10T09:25:40.491Z,7.03
2023-01-10T09:28:08.669Z,6.63
2023-01-10T09:30:38.453Z,8.33
2023-01-10T09:33:07.633Z,8.20
2023-01-10T09:35:39.572Z,4.90
2023-01-10T09:38:16.071Z,5.17
2023-01-10T09:41:20.782Z,5.10
2023-01-10T09:44:05.501Z,9.97
2023-01-10T09:46:50.139Z,6.17
2023-01-10T09:49:32.297Z,4.90
2023-01-10T09:52:02.241Z,4.30
2023-01-10T09:54:38.676Z,4.30
2023-01-10T09:57:07.706Z,5.40
2023-01-10T09:59:41.460Z,5.73
2023-01-10T10:02:27.453Z,6.63
2023-01-10T10:05:12.492Z,5.30
2023-01-10T10:07:41.404Z,4.80
2023-01-10T10:10:19.403Z,5.07
2023-01-10T10:13:01.234Z,4.00
2023-01-10T10:15:43.849Z,5.30
2023-01-10T10:18:30.387Z,3.80
2023-01-10T10:21:07.355Z,4.53
2023-01-10T10:24:03.645Z,5.37
2023-01-10T10:26:38.080Z,4.90
2023-01-10T10:29:40.673Z,4.10
2023-01-10T10:32:36.909Z,7.13
2023-01-10T10:35:14.755Z,5.97
2023-01-10T10:37:49.659Z,7.77
2023-01-10T10:40:23.425Z,4.57
2023-01-10T10:42:57.136Z,4.00
2023-01-10T10:45:39.800Z,4.57
2023-01-10T10:48:17.466Z,10.93
2023-01-10T10:50:59.048Z,8.60
2023-01-10T10:53:27.361Z,5.67
2023-01-10T10:55:57.152Z,7.00
2023-01-10T10:58:30.752Z,4.43
2023-01-10T11:01:00.558Z,7.80
2023-01-10T11:03:41.284Z,6.73
2023-01-10T11:06:11.317Z,7.57
2023-01-10T11:08:45.223Z,8.47
2023-01-10T11:11:26.191Z,7.10
2023-01-10T11:13:59.551Z,4.67
2023-01-10T11:16:31.575Z,5.47
2023-01-10T11:19:22.629Z,6.63
2023-01-10T11:21:58.492Z,8.20
2023-01-10T11:24:33.883Z,5.20
2023-01-10T11:27:15.256Z,6.47
2023-01-10T11:29:51.190Z,5.27
2023-01-10T11:32:24.655Z,7.40
2023-01-10T11:34:59.024Z,7.07
2023-01-10T11:37:32.385Z,4.83
2023-01-10T11:40:24.458Z,5.67
2023-01-10T11:42:59.019Z,7.30
2023-01-10T11:45:36.137Z,7.23
2023-01-10T11:48:19.286Z,5.80
2023-01-10T11:50:53.120Z,5.30
2023-01-10T11:53:39.064Z,8.23
2023-01-10T11:56:12.836Z,5.70
2023-01-10T11:58:43.938Z,4.70
2023-01-10T12:01:34.844Z,6.80
2023-01-10T12:04:04.123Z,36.10
2023-01-10T12:06:34.434Z,8.63
2023-01-10T12:09:02.748Z,5.33
2023-01-10T12:11:35.823Z,7.37
2023-01-10T12:14:21.018Z,5.50
2023-01-10T12:17:02.048Z,10.20
2023-01-10T12:19:30.814Z,9.20
2023-01-10T12:22:06.265Z,7.83
2023-01-10T12:24:41.873Z,10.53
2023-01-10T12:27:15.144Z,5.90
2023-01-10T12:29:48.826Z,4.80
2023-01-10T12:32:27.842Z,5.27
2023-01-10T12:35:03.167Z,4.90
2023-01-10T12:37:41.524Z,5.87
2023-01-10T12:40:17.211Z,4.43
2023-01-10T12:43:13.155Z,10.83
2023-01-10T12:45:50.031Z,3.47
2023-01-10T12:48:28.296Z,5.43
2023-01-10T12:51:02.729Z,3.67
2023-01-10T12:53:37.066Z,7.37
2023-01-10T12:56:11.350Z,5.67
2023-01-10T12:58:45.329Z,6.20
2023-01-10T13:01:18.767Z,5.13
2023-01-10T13:03:56.693Z,9.63
2023-01-10T13:06:35.215Z,6.03
2023-01-10T13:09:11.149Z,4.40
2023-01-10T13:11:49.623Z,5.77
2023-01-10T13:14:26.093Z,2.70
2023-01-10T13:17:04.666Z,4.30
2023-01-10T13:19:34.270Z,6.77
2023-01-10T13:22:23.386Z,4.17
2023-01-10T13:25:00.922Z,4.30
2023-01-10T13:27:36.207Z,10.73
2023-01-10T13:30:06.906Z,6.53
2023-01-10T13:32:38.427Z,5.30
2023-01-10T13:35:19.927Z,6.27
2023-01-10T13:37:56.752Z,7.03
2023-01-10T13:40:30.443Z,5.30
2023-01-10T13:43:40.709Z,5.00
2023-01-10T13:46:51.811Z,10.63
2023-01-10T13:49:42.432Z,3.00
2023-01-10T13:52:34.010Z,4.13
2023-01-10T13:55:21.254Z,4.80
2023-01-10T13:57:59.056Z,5.90
2023-01-10T14:01:17.101Z,5.27
2023-01-10T14:03:52.461Z,4.00
2023-01-10T14:06:44.742Z,2.77
2023-01-10T14:09:46.036Z,5.60
2023-01-10T14:12:35.482Z,4.53
2023-01-10T14:15:21.333Z,2.50
2023-01-10T14:18:00.150Z,3.50
2023-01-10T14:20:32.534Z,3.97
2023-01-10T14:23:06.831Z,3.70
2023-01-10T14:25:39.275Z,4.67
2023-01-10T14:28:24.799Z,5.77
2023-01-10T14:31:05.628Z,2.90
2023-01-10T14:33:37.118Z,3.40
2023-01-10T14:36:15.808Z,10.70
2023-01-10T14:38:47.974Z,3.53
2023-01-10T14:41:27.574Z,9.07
2023-01-10T14:44:02.287Z,5.20
2023-01-10T14:46:44.344Z,5.87
2023-01-10T14:49:27.213Z,3.53
2023-01-10T14:52:11.601Z,3.77
2023-01-10T14:54:39.935Z,5.30
2023-01-10T14:57:21.043Z,12.17
2023-01-10T14:59:50.132Z,7.53
2023-01-10T15:02:23.942Z,5.63
2023-01-10T15:04:56.989Z,4.63
2023-01-10T15:07:27.656Z,6.27
2023-01-10T15:10:03.993Z,8.80
2023-01-10T15:12:37.036Z,7.83
2023-01-10T15:15:14.448Z,6.90
2023-01-10T15:17:45.579Z,6.90
2023-01-10T15:20:17.802Z,7.30
2023-01-10T15:22:50.983Z,7.23
2023-01-10T15:25:39.318Z,11.30
2023-01-10T15:28:16.913Z,8.67
2023-01-10T15:30:46.780Z,5.13
2023-01-10T15:33:20.445Z,7.53
2023-01-10T15:35:49.084Z,11.30
2023-01-10T15:38:25.321Z,8.73
2023-01-10T15:41:01.828Z,7.57
2023-01-10T15:43:32.868Z,9.10
2023-01-10T15:46:04.556Z,10.40
2023-01-10T15:48:36.819Z,8.47
2023-01-10T15:51:14.899Z,7.03
2023-01-10T15:54:03.426Z,7.17
2023-01-10T15:56:37.842Z,7.87
2023-01-10T15:59:24.368Z,6.40
2023-01-10T16:01:57.575Z,3.37
2023-01-10T16:04:26.635Z,7.20
2023-01-10T16:07:08.936Z,4.10
2023-01-10T16:09:39.578Z,7.13
2023-01-10T16:12:25.205Z,7.90
2023-01-10T16:14:54.975Z,4.53
2023-01-10T16:17:23.396Z,5.40
2023-01-10T16:19:51.850Z,5.80
2023-01-10T16:22:21.549Z,4.30
2023-01-10T16:24:52.777Z,6.80
2023-01-10T16:27:21.073Z,7.87
2023-01-10T16:29:49.525Z,23.53
2023-01-10T16:32:19.020Z,37.00
2023-01-10T16:34:48.293Z,6.60
2023-01-10T16:37:16.527Z,8.93
2023-01-10T16:39:44.759Z,5.83
2023-01-10T16:42:30.382Z,4.40
2023-01-10T16:44:58.596Z,5.50
2023-01-10T16:47:28.528Z,7.43
2023-01-10T16:49:56.803Z,6.10
2023-01-10T16:52:25.556Z,5.33
2023-01-10T16:54:53.791Z,6.07
2023-01-10T16:57:24.765Z,6.93
2023-01-10T16:59:52.958Z,7.27
2023-01-10T17:02:21.910Z,6.40
2023-01-10T17:04:51.614Z,6.60
2023-01-10T17:07:20.618Z,4.43
2023-01-10T17:09:48.835Z,6.03
2023-01-10T17:12:20.565Z,4.53
2023-01-10T17:14:49.608Z,7.57
2023-01-10T17:17:17.927Z,6.27
2023-01-10T17:19:48.127Z,5.70
2023-01-10T17:22:17.834Z,8.07
2023-01-10T17:24:45.971Z,9.57
2023-01-10T17:27:15.008Z,15.13
2023-01-10T17:29:43.738Z,12.63
2023-01-10T17:32:13.173Z,15.67
2023-01-10T17:34:41.294Z,13.43
2023-01-10T17:37:10.137Z,12.57
2023-01-10T17:39:39.865Z,10.67
2023-01-10T17:42:08.823Z,7.63
2023-01-10T17:44:36.870Z,7.10
2023-01-10T17:47:05.601Z,6.57
2023-01-10T17:49:36.518Z,6.50
2023-01-10T17:52:05.453Z,4.90
2023-01-10T17:54:34.940Z,4.53
2023-01-10T17:57:05.143Z,5.27
2023-01-10T17:59:34.664Z,7.63
2023-01-10T18:02:03.052Z,8.20
2023-01-10T18:04:31.663Z,8.03
2023-01-10T18:07:00.004Z,17.53
2023-01-10T18:09:28.291Z,17.57
2023-01-10T18:11:56.976Z,20.20
2023-01-10T18:14:38.960Z,16.93
2023-01-10T18:17:11.628Z,20.63
2023-01-10T18:19:39.821Z,22.00
2023-01-10T18:22:22.100Z,29.50
2023-01-10T18:24:53.653Z,28.93
2023-01-10T18:27:22.934Z,19.63
2023-01-10T18:29:54.080Z,25.53
2023-01-10T18:32:24.500Z,24.10
2023-01-10T18:34:53.279Z,18.73
2023-01-10T18:51:55.726Z,11.37
2023-01-10T19:36:34.574Z,11.23
2023-01-10T20:59:04.821Z,4.13
2023-01-10T21:01:35.629Z,2.93
2023-01-10T21:04:06.466Z,6.17
2023-01-10T21:06:36.801Z,4.73
2023-01-10T21:09:06.974Z,3.33
2023-01-10T21:11:51.563Z,2.67
2023-01-10T21:14:25.586Z,3.60
2023-01-10T23:13:37.462Z,3.30
2023-01-10T23:16:08.933Z,2.10
2023-01-10T23:18:37.490Z,0.87
2023-01-10T23:21:07.500Z,2.27
2023-01-10T23:23:36.195Z,2.23
2023-01-10T23:26:07.470Z,2.97
2023-01-10T23:28:39.996Z,2.87
2023-01-10T23:31:09.351Z,2.17
2023-01-10T23:33:37.924Z,2.20
2023-01-10T23:36:07.952Z,1.07
2023-01-10T23:38:36.140Z,1.70
2023-01-10T23:41:04.747Z,3.60
2023-01-10T23:43:32.938Z,1.57
2023-01-10T23:46:02.878Z,1.57
2023-01-10T23:48:31.238Z,3.60
2023-01-10T23:50:59.754Z,2.50
2023-01-10T23:53:27.929Z,1.37
2023-01-10T23:55:57.332Z,2.37
2023-01-10T23:58:26.151Z,1.63
